Time;durP1;ratioP1;P1;durP2;ratioP2;P2;SDS_P1;SDS_P2;PMS_P1;PMS_P2;Temp;Humidity;BMP_temperature;BMP_pressure;BME280_temperature;BME280_humidity;BME280_pressure;Samples;Min_cycle;Max_cycle;Signal;HPM_P1;HPM_P2
2024/01/29 00:00:04;;;;;;;15.75;7.85;;;-0.20;99.90;;;;;;5065536;28;20551;-70
2024/01/29 00:02:32;;;;;;;18.35;8.75;;;-0.20;99.90;;;;;;5064312;28;20328;-70
2024/01/29 00:05:00;;;;;;;16.55;8.00;;;-0.20;99.90;;;;;;5065968;28;20207;-69
2024/01/29 00:07:28;;;;;;;16.88;8.07;;;-0.20;99.90;;;;;;5065963;28;20276;-71
2024/01/29 00:09:56;;;;;;;14.55;8.02;;;-0.30;99.90;;;;;;5065740;28;20226;-70
2024/01/29 00:12:24;;;;;;;17.73;8.63;;;-0.30;99.90;;;;;;5064245;28;20805;-70
2024/01/29 00:14:53;;;;;;;15.95;8.32;;;-0.30;99.90;;;;;;5065647;28;20205;-71
2024/01/29 00:17:26;;;;;;;16.50;8.93;;;-0.40;99.90;;;;;;5066063;28;20194;-71
2024/01/29 00:19:54;;;;;;;15.20;7.45;;;-0.40;99.90;;;;;;5065279;28;20473;-71
2024/01/29 00:22:22;;;;;;;20.10;9.45;;;-0.40;99.90;;;;;;5062341;28;20197;-72
2024/01/29 00:24:52;;;;;;;18.55;8.75;;;-0.40;99.90;;;;;;5065854;28;20587;-72
2024/01/29 00:27:22;;;;;;;16.13;8.55;;;-0.20;99.90;;;;;;5065725;28;20198;-70
2024/01/29 00:29:50;;;;;;;17.20;9.30;;;0.10;99.90;;;;;;5065876;28;20312;-73
2024/01/29 00:32:19;;;;;;;18.73;9.52;;;0.30;99.90;;;;;;5063280;28;20197;-72
2024/01/29 00:34:47;;;;;;;18.88;9.00;;;0.30;99.90;;;;;;5064964;28;20292;-70
2024/01/29 00:37:15;;;;;;;16.50;9.13;;;0.30;99.90;;;;;;5065187;28;20571;-70
2024/01/29 00:39:43;;;;;;;19.40;9.05;;;0.20;99.90;;;;;;5064677;28;20263;-70
2024/01/29 00:42:11;;;;;;;19.77;10.23;;;0.10;99.90;;;;;;5063971;28;20290;-71
2024/01/29 00:44:39;;;;;;;17.60;9.35;;;0.10;99.90;;;;;;5064316;28;20258;-70
2024/01/29 00:47:07;;;;;;;20.25;10.60;;;0.10;99.90;;;;;;5064922;28;20205;-71
2024/01/29 00:49:36;;;;;;;18.35;10.45;;;0.20;99.90;;;;;;5060910;28;20312;-72
2024/01/29 00:52:06;;;;;;;17.85;9.27;;;0.40;99.90;;;;;;5060219;28;20224;-72
2024/01/29 00:54:34;;;;;;;16.23;9.38;;;0.40;99.90;;;;;;5064566;28;20807;-69
2024/01/29 00:57:03;;;;;;;15.30;8.70;;;0.50;99.90;;;;;;5064532;28;20213;-70
2024/01/29 00:59:31;;;;;;;19.13;9.70;;;0.40;99.90;;;;;;5064926;28;20237;-72
2024/01/29 01:01:59;;;;;;;17.40;9.05;;;0.30;99.90;;;;;;5062935;28;20228;-69
2024/01/29 01:04:27;;;;;;;19.08;8.82;;;0.10;99.90;;;;;;5065105;28;20273;-70
2024/01/29 01:06:56;;;;;;;18.63;10.82;;;0.00;99.90;;;;;;5064812;28;20776;-70
2024/01/29 01:09:24;;;;;;;19.85;10.55;;;0.10;99.90;;;;;;5064881;28;20217;-70
2024/01/29 01:11:52;;;;;;;15.38;8.98;;;0.10;99.90;;;;;;5064095;28;20214;-71
2024/01/29 01:14:20;;;;;;;17.73;9.48;;;0.20;99.90;;;;;;5064338;28;20202;-71
2024/01/29 01:16:48;;;;;;;16.33;9.35;;;0.30;99.90;;;;;;5065392;28;20569;-70
2024/01/29 01:19:16;;;;;;;18.92;10.10;;;0.20;99.90;;;;;;5058709;28;20308;-70
2024/01/29 01:21:44;;;;;;;17.80;9.57;;;0.00;99.90;;;;;;5058034;28;20300;-70
2024/01/29 01:24:13;;;;;;;21.17;10.07;;;-0.10;99.90;;;;;;5064291;28;20243;-71
2024/01/29 01:26:41;;;;;;;23.45;10.57;;;-0.20;99.90;;;;;;5065094;28;20218;-72
2024/01/29 01:29:09;;;;;;;18.15;9.93;;;-0.20;99.90;;;;;;5065026;28;20716;-70
2024/01/29 01:31:37;;;;;;;16.75;9.20;;;-0.20;99.90;;;;;;5063422;28;20324;-70
2024/01/29 01:34:05;;;;;;;16.80;9.32;;;-0.20;99.90;;;;;;5058104;28;20710;-71
2024/01/29 01:36:33;;;;;;;21.02;9.70;;;-0.10;99.90;;;;;;5063194;28;20892;-70
2024/01/29 01:39:01;;;;;;;20.17;9.75;;;-0.10;99.90;;;;;;5063763;28;20318;-70
2024/01/29 01:41:31;;;;;;;22.55;9.70;;;0.00;99.90;;;;;;5061151;28;20209;-72
2024/01/29 01:43:59;;;;;;;20.70;10.23;;;0.00;99.90;;;;;;5063538;28;20206;-70
2024/01/29 01:46:27;;;;;;;20.38;10.05;;;-0.10;99.90;;;;;;5064343;28;20238;-70
2024/01/29 01:48:56;;;;;;;16.50;8.85;;;-0.10;99.90;;;;;;5066959;28;20220;-70
2024/01/29 01:51:25;;;;;;;19.10;9.98;;;-0.10;99.90;;;;;;5063662;28;20231;-71
2024/01/29 01:53:55;;;;;;;18.55;10.93;;;-0.20;99.90;;;;;;5067017;28;20213;-71
2024/01/29 01:56:24;;;;;;;19.63;10.25;;;-0.10;99.90;;;;;;5065802;28;20730;-73
2024/01/29 01:58:56;;;;;;;20.27;10.25;;;-0.10;99.90;;;;;;5066867;28;20226;-72
2024/01/29 02:01:23;;;;;;;19.38;10.27;;;0.00;99.90;;;;;;5064599;28;20284;-70
2024/01/29 02:03:52;;;;;;;16.90;9.00;;;0.10;99.90;;;;;;5068259;28;20212;-71
2024/01/29 02:06:20;;;;;;;18.63;9.70;;;0.10;99.90;;;;;;5068335;28;20286;-68
2024/01/29 02:08:48;;;;;;;18.65;10.15;;;0.10;99.90;;;;;;5068529;28;20334;-70
2024/01/29 02:11:16;;;;;;;17.45;8.88;;;0.10;99.90;;;;;;5067153;28;20310;-70
2024/01/29 02:13:44;;;;;;;22.83;9.97;;;0.10;99.90;;;;;;5067423;28;20708;-70
2024/01/29 02:16:13;;;;;;;17.40;9.82;;;0.10;99.90;;;;;;5067412;28;20941;-70
2024/01/29 02:18:41;;;;;;;18.48;10.05;;;0.10;99.90;;;;;;5067685;28;20217;-73
2024/01/29 02:21:09;;;;;;;17.50;9.80;;;0.00;99.90;;;;;;5066810;28;20198;-72
2024/01/29 02:23:38;;;;;;;18.75;9.65;;;-0.10;99.90;;;;;;5065251;28;20776;-72
2024/01/29 02:26:06;;;;;;;19.88;10.80;;;-0.10;99.90;;;;;;5066294;28;20208;-71
2024/01/29 02:28:34;;;;;;;18.20;10.27;;;-0.20;99.90;;;;;;5066691;28;20242;-70
2024/01/29 02:31:02;;;;;;;17.48;10.27;;;-0.20;99.90;;;;;;5065929;28;20219;-71
2024/01/29 02:33:31;;;;;;;16.85;10.23;;;0.00;99.90;;;;;;5066250;28;20207;-70
2024/01/29 02:35:59;;;;;;;18.55;9.63;;;0.00;99.90;;;;;;5063612;28;20217;-72
2024/01/29 02:38:27;;;;;;;19.52;9.88;;;-0.10;99.90;;;;;;5066447;28;20232;-70
2024/01/29 02:40:56;;;;;;;21.25;11.60;;;0.00;99.90;;;;;;5065691;28;20194;-70
2024/01/29 02:43:24;;;;;;;16.70;10.30;;;-0.10;99.90;;;;;;5065827;28;20211;-72
2024/01/29 02:45:52;;;;;;;23.17;11.10;;;-0.20;99.90;;;;;;5066579;28;20205;-71
2024/01/29 02:48:20;;;;;;;21.08;10.70;;;-0.30;99.90;;;;;;5066183;28;20259;-73
2024/01/29 02:50:49;;;;;;;19.95;10.85;;;-0.20;99.90;;;;;;5065713;28;20233;-71
2024/01/29 02:53:17;;;;;;;18.45;11.60;;;-0.20;99.90;;;;;;5064068;28;20625;-70
2024/01/29 02:55:44;;;;;;;21.08;10.25;;;0.00;99.90;;;;;;5065469;28;20203;-70
2024/01/29 02:58:14;;;;;;;21.00;11.20;;;0.10;99.90;;;;;;5066047;28;20224;-71
2024/01/29 03:00:42;;;;;;;16.70;11.25;;;0.10;99.90;;;;;;5064954;28;20346;-70
2024/01/29 03:03:11;;;;;;;17.20;10.02;;;0.00;99.90;;;;;;5065108;28;20201;-70
2024/01/29 03:05:39;;;;;;;18.15;10.13;;;0.00;99.90;;;;;;5065181;28;20209;-71
2024/01/29 03:08:07;;;;;;;20.60;10.70;;;0.00;99.90;;;;;;5060517;28;20229;-71
2024/01/29 03:10:35;;;;;;;19.45;10.57;;;0.00;99.90;;;;;;5064813;28;20738;-72
2024/01/29 03:13:03;;;;;;;24.30;11.90;;;0.10;99.90;;;;;;5065352;28;20231;-70
2024/01/29 03:15:33;;;;;;;18.52;11.05;;;0.30;99.90;;;;;;5064536;28;20210;-72
2024/01/29 03:18:01;;;;;;;22.67;11.20;;;0.30;99.90;;;;;;5065578;28;20229;-71
2024/01/29 03:20:29;;;;;;;19.48;10.60;;;0.30;99.90;;;;;;5064434;28;20282;-73
2024/01/29 03:22:57;;;;;;;19.55;10.60;;;0.30;99.90;;;;;;5059176;28;20615;-70
2024/01/29 03:25:24;;;;;;;19.88;10.85;;;0.30;99.90;;;;;;5065668;28;20237;-71
2024/01/29 03:27:53;;;;;;;18.60;11.05;;;0.20;99.90;;;;;;5066876;28;20206;-70
2024/01/29 03:30:21;;;;;;;19.40;9.55;;;0.20;99.90;;;;;;5065009;28;20252;-72
2024/01/29 03:32:51;;;;;;;18.23;11.07;;;0.20;99.90;;;;;;5065841;28;20233;-70
2024/01/29 03:35:19;;;;;;;21.58;11.07;;;0.20;99.90;;;;;;5065772;28;20222;-70
2024/01/29 03:37:47;;;;;;;19.42;10.93;;;0.10;99.90;;;;;;5066669;28;20315;-72
2024/01/29 03:40:15;;;;;;;19.08;10.55;;;0.00;99.90;;;;;;5066221;28;20225;-70
2024/01/29 03:42:43;;;;;;;19.20;10.57;;;0.10;99.90;;;;;;5065818;28;20315;-70
2024/01/29 03:45:11;;;;;;;21.85;11.70;;;0.20;99.90;;;;;;5064645;28;20216;-68
2024/01/29 03:47:39;;;;;;;18.92;10.40;;;0.20;99.90;;;;;;5066652;28;20271;-70
2024/01/29 03:50:09;;;;;;;23.98;11.23;;;0.10;99.90;;;;;;5066089;28;20217;-70
2024/01/29 03:52:37;;;;;;;19.33;9.95;;;0.20;99.90;;;;;;5064695;28;20240;-71
2024/01/29 03:55:06;;;;;;;17.75;9.25;;;0.00;99.90;;;;;;5064901;28;20232;-70
2024/01/29 03:57:35;;;;;;;18.35;9.60;;;0.00;99.90;;;;;;5064952;28;20222;-69
2024/01/29 04:00:03;;;;;;;18.13;9.65;;;-0.10;99.90;;;;;;5065553;28;20222;-70
2024/01/29 04:02:31;;;;;;;17.30;9.73;;;-0.10;99.90;;;;;;5050871;28;20217;-69
2024/01/29 04:04:59;;;;;;;21.40;11.48;;;-0.20;99.90;;;;;;5065406;28;20252;-70
2024/01/29 04:07:29;;;;;;;21.77;10.85;;;-0.30;99.90;;;;;;5065035;28;20309;-71
2024/01/29 04:09:57;;;;;;;17.17;10.70;;;-0.40;99.90;;;;;;5064264;28;20225;-71
2024/01/29 04:12:27;;;;;;;16.65;9.25;;;-0.40;99.90;;;;;;5064482;28;20225;-70
2024/01/29 04:14:55;;;;;;;18.50;9.57;;;-0.40;99.90;;;;;;5065535;28;20222;-70
2024/01/29 04:17:23;;;;;;;18.13;9.15;;;-0.40;99.90;;;;;;5065333;28;20333;-71
2024/01/29 04:19:51;;;;;;;16.70;9.05;;;-0.40;99.90;;;;;;5065434;28;20687;-70
2024/01/29 04:22:19;;;;;;;20.20;9.23;;;-0.30;99.90;;;;;;5063365;28;20241;-70
2024/01/29 04:24:48;;;;;;;16.77;10.00;;;-0.30;99.90;;;;;;5060307;28;20220;-70
2024/01/29 04:27:16;;;;;;;18.88;9.32;;;-0.20;99.90;;;;;;5058816;28;20215;-70
2024/01/29 04:29:45;;;;;;;17.27;9.60;;;0.00;99.90;;;;;;5059381;28;20228;-70
2024/01/29 04:32:13;;;;;;;17.88;9.23;;;0.10;99.90;;;;;;5063117;28;20229;-72
2024/01/29 04:34:41;;;;;;;17.58;9.75;;;0.00;99.90;;;;;;5064317;28;20236;-73
2024/01/29 04:37:09;;;;;;;16.20;8.48;;;0.00;99.90;;;;;;5063957;28;20222;-70
2024/01/29 04:39:38;;;;;;;18.67;9.95;;;0.10;99.90;;;;;;5064514;28;20312;-72
2024/01/29 04:42:08;;;;;;;19.42;9.05;;;0.20;99.90;;;;;;5063403;28;21124;-71
2024/01/29 04:44:36;;;;;;;16.98;10.02;;;0.10;99.90;;;;;;5063872;28;20640;-71
2024/01/29 04:47:04;;;;;;;18.70;10.05;;;0.00;99.90;;;;;;5064399;28;20775;-70
2024/01/29 04:49:32;;;;;;;18.40;9.77;;;0.00;99.90;;;;;;5064534;28;20221;-70
2024/01/29 04:52:00;;;;;;;18.75;8.68;;;-0.10;99.90;;;;;;5062334;28;20225;-69
2024/01/29 04:54:30;;;;;;;20.23;10.05;;;-0.10;99.90;;;;;;5064825;28;20252;-70
2024/01/29 04:56:58;;;;;;;16.63;10.73;;;-0.10;99.90;;;;;;5065008;28;20217;-71
2024/01/29 04:59:28;;;;;;;19.42;10.43;;;0.00;99.90;;;;;;5065248;28;20595;-70
2024/01/29 05:01:56;;;;;;;17.02;9.90;;;0.10;99.90;;;;;;5064394;28;20271;-73
2024/01/29 05:04:24;;;;;;;16.48;9.40;;;0.10;99.90;;;;;;5065203;28;20319;-71
2024/01/29 05:06:52;;;;;;;20.33;9.45;;;0.10;99.90;;;;;;5065190;28;20229;-72
2024/01/29 05:09:20;;;;;;;19.92;10.88;;;0.10;99.90;;;;;;5065276;28;20259;-73
2024/01/29 05:11:48;;;;;;;16.00;9.70;;;0.00;99.90;;;;;;5063211;28;20375;-71
2024/01/29 05:14:16;;;;;;;20.15;9.27;;;0.00;99.90;;;;;;5065010;28;20241;-70
2024/01/29 05:16:46;;;;;;;18.15;9.50;;;0.00;99.90;;;;;;5062022;28;20366;-70
2024/01/29 05:19:14;;;;;;;16.50;9.60;;;-0.10;99.90;;;;;;5065338;28;20234;-71
2024/01/29 05:21:43;;;;;;;18.85;8.88;;;-0.10;99.90;;;;;;5065845;28;20227;-71
2024/01/29 05:24:11;;;;;;;16.10;9.85;;;-0.20;99.90;;;;;;5068434;28;20791;-68
2024/01/29 05:26:39;;;;;;;17.92;10.38;;;-0.10;99.90;;;;;;5068044;28;20229;-70
2024/01/29 05:29:07;;;;;;;15.80;8.05;;;-0.20;99.90;;;;;;5062097;28;20233;-71
2024/01/29 05:31:35;;;;;;;15.48;9.55;;;-0.10;99.90;;;;;;5066360;28;20224;-70
2024/01/29 05:34:04;;;;;;;20.17;9.68;;;-0.10;99.90;;;;;;5067512;28;20291;-69
2024/01/29 05:36:32;;;;;;;15.40;8.55;;;-0.10;99.90;;;;;;5067544;28;20865;-73
2024/01/29 05:39:00;;;;;;;20.70;9.57;;;-0.10;99.90;;;;;;5068021;28;20268;-70
2024/01/29 05:41:28;;;;;;;17.73;9.10;;;0.00;99.90;;;;;;5065076;28;20209;-69
2024/01/29 05:44:00;;;;;;;17.77;9.10;;;-0.10;99.90;;;;;;5067282;28;20571;-70
2024/01/29 05:46:27;;;;;;;17.40;9.00;;;0.00;99.90;;;;;;5067765;28;20300;-70
2024/01/29 05:48:55;;;;;;;17.83;9.60;;;0.10;99.90;;;;;;5068950;28;20227;-69
2024/01/29 05:51:25;;;;;;;17.05;9.05;;;0.00;99.90;;;;;;5067042;28;20217;-69
2024/01/29 05:53:53;;;;;;;17.63;9.30;;;0.10;99.90;;;;;;5068161;28;20244;-72
2024/01/29 05:56:20;;;;;;;17.02;8.05;;;0.00;99.90;;;;;;5068620;28;20207;-71
2024/01/29 05:58:49;;;;;;;16.45;8.35;;;0.00;99.90;;;;;;5067666;28;20251;-71
2024/01/29 06:01:17;;;;;;;15.57;8.15;;;0.00;99.90;;;;;;5067022;28;20222;-71
2024/01/29 06:03:45;;;;;;;16.70;9.50;;;0.00;99.90;;;;;;5067203;28;20197;-71
2024/01/29 06:06:13;;;;;;;14.93;7.97;;;-0.10;99.90;;;;;;5064307;28;21583;-71
2024/01/29 06:08:42;;;;;;;14.77;6.88;;;-0.10;99.90;;;;;;5065538;28;20599;-69
2024/01/29 06:11:10;;;;;;;15.68;8.85;;;-0.20;99.90;;;;;;5065546;28;20202;-69
2024/01/29 06:13:39;;;;;;;15.85;8.65;;;-0.30;99.90;;;;;;5066136;28;20338;-70
2024/01/29 06:16:08;;;;;;;13.65;8.38;;;-0.30;99.90;;;;;;5066628;28;20205;-71
2024/01/29 06:18:37;;;;;;;17.05;8.93;;;-0.40;99.90;;;;;;5066765;28;20231;-70
2024/01/29 06:21:06;;;;;;;16.73;8.57;;;-0.40;99.90;;;;;;5066055;28;20198;-70
2024/01/29 06:23:36;;;;;;;16.48;8.68;;;-0.40;99.90;;;;;;5065851;28;20202;-70
2024/01/29 06:26:06;;;;;;;16.45;9.30;;;-0.40;99.90;;;;;;5065719;28;20209;-71
2024/01/29 06:28:34;;;;;;;18.75;9.45;;;-0.40;99.90;;;;;;5065796;28;20224;-71
2024/01/29 06:31:01;;;;;;;19.13;9.63;;;-0.30;99.90;;;;;;5064987;28;20212;-70
2024/01/29 06:33:30;;;;;;;16.92;9.52;;;-0.30;99.90;;;;;;5066060;28;20241;-72
2024/01/29 06:35:59;;;;;;;18.08;9.48;;;-0.40;99.90;;;;;;5065443;28;20295;-72
2024/01/29 06:38:31;;;;;;;16.83;9.80;;;-0.40;99.90;;;;;;5066490;28;20309;-72
2024/01/29 06:41:00;;;;;;;17.98;9.23;;;-0.40;99.90;;;;;;5065525;28;20319;-71
2024/01/29 06:43:29;;;;;;;18.70;9.63;;;-0.30;99.90;;;;;;5065508;28;20192;-72
2024/01/29 06:45:59;;;;;;;19.48;10.18;;;-0.40;99.90;;;;;;5066510;28;20214;-70
2024/01/29 06:48:27;;;;;;;21.38;9.73;;;-0.40;99.90;;;;;;5066593;28;20229;-71
2024/01/29 06:50:55;;;;;;;15.80;9.10;;;-0.40;99.90;;;;;;5065619;28;20205;-71
2024/01/29 06:53:27;;;;;;;17.25;9.35;;;-0.50;99.90;;;;;;5066153;28;20313;-71
2024/01/29 06:55:56;;;;;;;24.13;10.38;;;-0.40;99.90;;;;;;5066054;28;20200;-70
2024/01/29 06:58:24;;;;;;;16.60;9.57;;;-0.40;99.90;;;;;;5066731;28;20261;-71
2024/01/29 07:00:54;;;;;;;16.88;9.27;;;-0.40;99.90;;;;;;5065205;28;20205;-71
2024/01/29 07:03:22;;;;;;;17.65;9.20;;;-0.40;99.90;;;;;;5066263;28;20567;-71
2024/01/29 07:05:52;;;;;;;18.15;9.52;;;-0.40;99.90;;;;;;5062401;28;20205;-71
2024/01/29 07:08:20;;;;;;;18.13;10.00;;;-0.50;99.90;;;;;;5066117;28;20606;-72
2024/01/29 07:10:55;;;;;;;19.75;9.85;;;-0.50;99.90;;;;;;5061317;28;20209;-71
2024/01/29 07:13:23;;;;;;;18.95;8.55;;;-0.50;99.90;;;;;;5065017;28;20242;-69
2024/01/29 07:15:52;;;;;;;18.48;10.82;;;-0.40;99.90;;;;;;5066117;28;20299;-70
2024/01/29 07:18:23;;;;;;;18.13;8.93;;;-0.40;99.90;;;;;;5065886;28;20765;-70
2024/01/29 07:20:51;;;;;;;18.95;10.23;;;-0.50;99.90;;;;;;5060183;28;20262;-70
2024/01/29 07:23:19;;;;;;;19.42;10.13;;;-0.40;99.90;;;;;;5064724;28;20207;-72
2024/01/29 07:25:50;;;;;;;20.48;10.07;;;-0.30;99.90;;;;;;5065861;28;20214;-70
2024/01/29 07:28:18;;;;;;;20.08;10.63;;;-0.10;99.90;;;;;;5065915;28;20333;-72
2024/01/29 07:30:46;;;;;;;17.55;9.50;;;-0.10;99.90;;;;;;5064804;28;20573;-72
2024/01/29 07:33:15;;;;;;;16.88;9.23;;;0.00;99.90;;;;;;5066439;28;20625;-72
2024/01/29 07:35:43;;;;;;;16.60;8.80;;;0.00;99.90;;;;;;5066902;28;20216;-72
2024/01/29 07:38:11;;;;;;;17.42;9.90;;;0.10;99.90;;;;;;5066017;28;20320;-72
2024/01/29 07:40:39;;;;;;;17.98;9.35;;;0.10;99.90;;;;;;5064563;28;20237;-72
2024/01/29 07:43:07;;;;;;;18.73;10.13;;;0.20;99.90;;;;;;5062944;28;20305;-72
2024/01/29 07:45:35;;;;;;;20.20;10.50;;;0.40;99.90;;;;;;5062597;28;20256;-72
2024/01/29 07:48:04;;;;;;;18.55;9.45;;;0.50;99.90;;;;;;5064930;28;20309;-73
2024/01/29 07:50:35;;;;;;;18.95;10.43;;;0.50;99.90;;;;;;5064821;28;20917;-72
2024/01/29 07:53:03;;;;;;;17.33;9.77;;;0.60;99.90;;;;;;5065272;28;20210;-73
2024/01/29 07:55:34;;;;;;;20.00;10.57;;;0.60;99.90;;;;;;5065559;28;20883;-72
2024/01/29 07:58:02;;;;;;;22.45;10.73;;;0.70;99.90;;;;;;5065504;28;20292;-73
2024/01/29 08:00:30;;;;;;;23.30;10.33;;;0.90;99.90;;;;;;5065001;28;20216;-73
2024/01/29 08:03:00;;;;;;;20.98;11.85;;;0.90;99.90;;;;;;5064768;28;20440;-71
2024/01/29 08:05:28;;;;;;;15.63;9.23;;;1.10;99.90;;;;;;5061453;28;20302;-72
2024/01/29 08:07:57;;;;;;;18.00;10.50;;;1.20;99.90;;;;;;5064052;28;20452;-72
2024/01/29 08:10:27;;;;;;;17.40;9.73;;;1.30;99.90;;;;;;5064199;28;20499;-72
2024/01/29 08:12:55;;;;;;;16.17;10.23;;;1.40;99.90;;;;;;5065442;28;20487;-74
2024/01/29 08:15:24;;;;;;;18.40;10.70;;;1.50;99.90;;;;;;5065175;28;20487;-72
2024/01/29 08:17:52;;;;;;;17.50;9.50;;;1.60;99.90;;;;;;5062472;28;20524;-74
2024/01/29 08:20:23;;;;;;;16.87;9.60;;;1.70;99.90;;;;;;5065561;28;20509;-73
2024/01/29 08:22:51;;;;;;;19.80;10.60;;;1.70;99.90;;;;;;5062755;28;20447;-73
2024/01/29 08:25:21;;;;;;;17.37;10.43;;;1.70;99.90;;;;;;5065661;28;20581;-73
2024/01/29 08:27:49;;;;;;;18.77;10.70;;;1.70;99.90;;;;;;5065267;28;20454;-73
2024/01/29 08:30:17;;;;;;;18.17;11.60;;;1.80;99.90;;;;;;5064705;28;20500;-72
2024/01/29 08:32:45;;;;;;;20.83;11.50;;;2.00;99.90;;;;;;5065436;28;20446;-71
2024/01/29 08:35:14;;;;;;;19.17;10.57;;;2.10;99.90;;;;;;5065535;28;20490;-73
2024/01/29 08:37:42;;;;;;;18.17;8.37;;;2.30;99.90;;;;;;5065275;28;20454;-73
2024/01/29 08:40:10;;;;;;;15.97;9.63;;;2.60;99.90;;;;;;5065847;28;20811;-72
2024/01/29 08:42:40;;;;;;;18.07;9.37;;;2.80;99.90;;;;;;5065252;28;20462;-73
2024/01/29 08:45:08;;;;;;;16.93;9.17;;;2.90;99.90;;;;;;5065854;28;20470;-72
2024/01/29 08:47:39;;;;;;;17.03;9.57;;;3.20;99.90;;;;;;5065492;28;20523;-73
2024/01/29 08:50:08;;;;;;;14.40;9.00;;;3.50;99.90;;;;;;5066050;28;20435;-72
2024/01/29 08:52:36;;;;;;;17.00;8.60;;;3.70;99.90;;;;;;5066205;28;20431;-72
2024/01/29 08:55:06;;;;;;;16.27;7.97;;;3.80;99.90;;;;;;5069957;28;20549;-72
2024/01/29 08:57:37;;;;;;;15.90;8.80;;;4.00;99.90;;;;;;5071657;28;20983;-72
2024/01/29 09:00:08;;;;;;;18.00;8.97;;;4.10;99.90;;;;;;5071299;28;20485;-72
2024/01/29 09:02:37;;;;;;;13.63;7.70;;;4.20;99.90;;;;;;5070081;28;20453;-71
2024/01/29 09:05:05;;;;;;;15.33;8.67;;;4.40;99.90;;;;;;5069771;28;20445;-72
2024/01/29 09:07:34;;;;;;;16.73;9.47;;;4.40;99.90;;;;;;5070127;28;20447;-73
2024/01/29 09:10:06;;;;;;;16.60;8.20;;;4.50;99.90;;;;;;5070120;28;20446;-72
2024/01/29 09:12:34;;;;;;;17.43;8.83;;;4.80;99.90;;;;;;5068549;28;20462;-72
2024/01/29 09:15:04;;;;;;;15.23;8.40;;;5.00;99.90;;;;;;5069460;28;20489;-72
2024/01/29 09:17:33;;;;;;;14.70;8.47;;;5.20;99.90;;;;;;5070671;28;20457;-70
2024/01/29 09:20:01;;;;;;;15.50;9.20;;;5.40;99.90;;;;;;5069606;28;20474;-72
2024/01/29 09:22:29;;;;;;;19.23;9.07;;;5.60;99.90;;;;;;5069585;28;20439;-72
2024/01/29 09:24:57;;;;;;;16.50;9.13;;;5.80;99.90;;;;;;5069608;28;20447;-72
2024/01/29 09:27:25;;;;;;;16.53;8.57;;;6.10;99.90;;;;;;5069985;28;20447;-71
2024/01/29 09:29:53;;;;;;;14.23;8.70;;;6.20;99.90;;;;;;5066762;28;20500;-72
2024/01/29 09:32:21;;;;;;;13.60;8.10;;;6.50;99.90;;;;;;5069239;28;20818;-71
2024/01/29 09:34:50;;;;;;;15.83;9.77;;;6.40;99.90;;;;;;5069896;28;20846;-72
2024/01/29 09:37:20;;;;;;;15.23;8.73;;;6.40;99.90;;;;;;5069987;28;20960;-70
2024/01/29 09:39:47;;;;;;;16.63;9.10;;;6.50;99.90;;;;;;5070276;28;21026;-71
2024/01/29 09:42:18;;;;;;;16.57;9.20;;;6.70;99.90;;;;;;5069193;28;20960;-71
2024/01/29 09:44:48;;;;;;;13.33;8.70;;;7.00;99.90;;;;;;5069566;28;20438;-72
2024/01/29 09:47:18;;;;;;;15.83;9.37;;;7.20;99.90;;;;;;5069763;28;20452;-72
2024/01/29 09:49:46;;;;;;;17.97;8.73;;;7.30;99.90;;;;;;5069921;28;20603;-72
2024/01/29 09:52:18;;;;;;;13.90;8.10;;;7.70;99.90;;;;;;5068667;28;20488;-71
2024/01/29 09:54:49;;;;;;;14.17;8.10;;;8.10;99.90;;;;;;5069149;28;20493;-72
2024/01/29 09:57:17;;;;;;;15.20;7.83;;;8.60;99.20;;;;;;5069466;28;20533;-71
2024/01/29 09:59:45;;;;;;;15.10;9.30;;;8.90;98.00;;;;;;5069726;28;20466;-71
2024/01/29 10:02:15;;;;;;;14.13;8.57;;;9.20;97.20;;;;;;5068581;28;20462;-71
2024/01/29 10:04:43;;;;;;;14.27;8.33;;;9.60;95.90;;;;;;5069061;28;20494;-72
2024/01/29 10:07:11;;;;;;;14.60;7.93;;;9.90;94.70;;;;;;5068747;28;20446;-71
2024/01/29 10:09:42;;;;;;;15.70;9.03;;;10.10;92.50;;;;;;5069238;28;20987;-72
2024/01/29 10:12:22;;;;;;;16.07;8.20;;;10.20;90.80;;;;;;5068253;28;20511;-72
2024/01/29 10:14:55;;;;;;;12.70;7.63;;;10.20;90.40;;;;;;5068881;28;20561;-70
2024/01/29 10:17:24;;;;;;;15.07;7.87;;;10.40;89.20;;;;;;5069340;28;20474;-71
2024/01/29 10:19:52;;;;;;;14.37;9.10;;;10.60;89.10;;;;;;5068973;28;20976;-70
2024/01/29 10:22:24;;;;;;;16.10;7.73;;;10.80;86.90;;;;;;5067822;28;20454;-72
2024/01/29 10:25:02;;;;;;;16.60;8.23;;;11.20;85.50;;;;;;5069343;28;20439;-71
2024/01/29 10:27:30;;;;;;;14.97;8.43;;;11.20;80.90;;;;;;5064269;28;20501;-70
2024/01/29 10:29:58;;;;;;;12.00;7.43;;;11.30;82.90;;;;;;5067729;28;20576;-74
2024/01/29 10:32:26;;;;;;;12.27;7.23;;;11.60;80.30;;;;;;5067263;28;20522;-73
2024/01/29 10:34:55;;;;;;;14.80;7.67;;;12.00;80.20;;;;;;5064918;28;21095;-72
2024/01/29 10:37:26;;;;;;;14.03;7.60;;;12.30;76.90;;;;;;5069030;28;20929;-69
2024/01/29 10:39:55;;;;;;;13.70;8.00;;;12.70;75.00;;;;;;5069138;28;20465;-69
2024/01/29 10:42:29;;;;;;;13.77;8.27;;;13.10;75.20;;;;;;5068147;28;20468;-69
2024/01/29 10:45:01;;;;;;;13.10;7.73;;;13.40;72.20;;;;;;5068874;28;21016;-70
2024/01/29 10:47:31;;;;;;;13.43;8.07;;;13.80;70.00;;;;;;5069188;28;20440;-69
2024/01/29 10:50:00;;;;;;;14.03;7.87;;;14.20;66.20;;;;;;5068277;28;20532;-70
2024/01/29 10:52:30;;;;;;;13.27;8.60;;;14.30;65.50;;;;;;5067455;28;20500;-70
2024/01/29 10:54:59;;;;;;;16.73;8.40;;;14.50;64.20;;;;;;5065431;28;20471;-71
2024/01/29 10:57:30;;;;;;;13.00;8.07;;;14.60;64.80;;;;;;5068795;28;20936;-71
2024/01/29 10:59:59;;;;;;;16.53;8.40;;;14.90;61.50;;;;;;5065719;28;20554;-70
2024/01/29 11:02:29;;;;;;;12.83;7.70;;;14.90;61.60;;;;;;5067920;28;20518;-70
2024/01/29 11:04:57;;;;;;;14.70;8.60;;;15.00;61.60;;;;;;5069040;28;20443;-69
2024/01/29 11:07:28;;;;;;;13.00;8.53;;;15.20;61.30;;;;;;5068328;28;20446;-69
2024/01/29 11:10:06;;;;;;;14.73;9.20;;;15.50;59.00;;;;;;5065034;28;20460;-69
2024/01/29 11:12:38;;;;;;;14.27;7.60;;;15.70;57.70;;;;;;5067269;28;20959;-69
2024/01/29 11:15:07;;;;;;;12.77;8.03;;;15.50;58.80;;;;;;5068781;28;20489;-70
2024/01/29 11:17:35;;;;;;;13.47;7.90;;;15.00;58.80;;;;;;5065607;28;20451;-70
2024/01/29 11:20:10;;;;;;;12.87;7.70;;;14.00;61.10;;;;;;5067229;28;20467;-69
2024/01/29 11:22:39;;;;;;;15.67;8.00;;;13.30;63.60;;;;;;5068362;28;20437;-71
2024/01/29 11:25:12;;;;;;;15.57;7.70;;;12.70;66.40;;;;;;5066261;28;21126;-71
2024/01/29 11:27:43;;;;;;;14.37;7.77;;;12.20;66.90;;;;;;5067763;28;20512;-71
2024/01/29 11:30:16;;;;;;;13.77;7.63;;;11.80;69.50;;;;;;5067914;28;20496;-70
2024/01/29 11:32:46;;;;;;;15.77;7.53;;;11.60;68.40;;;;;;5061767;28;20479;-70
2024/01/29 11:35:15;;;;;;;13.53;8.20;;;11.50;70.20;;;;;;5065347;28;20488;-72
2024/01/29 11:37:48;;;;;;;14.10;8.30;;;11.40;70.50;;;;;;5067465;28;20442;-71
2024/01/29 11:40:33;;;;;;;14.47;8.43;;;11.30;71.40;;;;;;5064034;28;20451;-67
2024/01/29 11:43:04;;;;;;;15.33;7.50;;;11.20;72.70;;;;;;5064943;28;20540;-71
2024/01/29 11:45:35;;;;;;;14.30;8.40;;;11.10;73.00;;;;;;5064360;28;20516;-71
2024/01/29 11:48:08;;;;;;;16.57;7.70;;;11.00;72.20;;;;;;5065271;28;20939;-71
2024/01/29 11:50:36;;;;;;;13.77;7.17;;;10.90;73.40;;;;;;5066772;28;20448;-71
2024/01/29 11:53:05;;;;;;;12.00;6.67;;;11.00;72.80;;;;;;5066862;28;20439;-71
2024/01/29 11:55:33;;;;;;;15.60;7.67;;;11.00;73.90;;;;;;5067378;28;20544;-71
2024/01/29 11:58:03;;;;;;;13.70;6.70;;;11.10;72.80;;;;;;5064706;28;20521;-71
2024/01/29 12:00:31;;;;;;;13.17;8.13;;;11.00;73.80;;;;;;5055977;28;20522;-72
2024/01/29 12:02:59;;;;;;;12.73;6.90;;;11.00;74.20;;;;;;5060643;28;20438;-72
2024/01/29 12:05:27;;;;;;;13.87;6.00;;;11.10;72.70;;;;;;5062753;28;20953;-72
2024/01/29 12:07:56;;;;;;;12.50;6.47;;;11.10;73.60;;;;;;5062562;28;20531;-71
2024/01/29 12:10:25;;;;;;;12.53;6.37;;;11.10;74.00;;;;;;5063217;28;20535;-71
2024/01/29 12:12:53;;;;;;;14.57;7.33;;;11.30;73.60;;;;;;5062970;28;20451;-71
2024/01/29 12:15:22;;;;;;;12.20;6.17;;;11.30;73.00;;;;;;5063333;28;20443;-72
2024/01/29 12:17:51;;;;;;;14.27;5.80;;;11.40;73.10;;;;;;5064428;28;20435;-72
2024/01/29 12:20:22;;;;;;;13.20;6.07;;;11.60;73.20;;;;;;5062580;28;20461;-71
2024/01/29 12:22:50;;;;;;;12.90;6.70;;;11.70;72.00;;;;;;5061310;28;20439;-72
2024/01/29 12:25:18;;;;;;;12.83;6.20;;;11.70;72.60;;;;;;5061470;28;20974;-71
2024/01/29 12:27:46;;;;;;;11.13;5.60;;;11.80;71.80;;;;;;5062125;28;20528;-73
2024/01/29 12:30:15;;;;;;;12.30;5.30;;;12.00;69.10;;;;;;5061010;28;20447;-69
2024/01/29 12:32:45;;;;;;;11.77;6.20;;;12.10;69.60;;;;;;5061182;28;20505;-72
2024/01/29 12:35:28;;;;;;;11.33;5.53;;;12.20;70.20;;;;;;5061089;28;21475;-71
2024/01/29 12:38:05;;;;;;;10.37;4.87;;;12.20;69.90;;;;;;5061641;28;20425;-70
2024/01/29 12:40:34;;;;;;;14.20;5.77;;;12.30;69.80;;;;;;5060360;28;20449;-71
2024/01/29 12:43:02;;;;;;;11.83;6.27;;;12.40;69.30;;;;;;5061846;28;20529;-70
2024/01/29 12:45:30;;;;;;;14.43;6.63;;;12.60;69.50;;;;;;5061546;28;21106;-70